Time;durP1;ratioP1;P1;durP2;ratioP2;P2;SDS_P1;SDS_P2;PMS_P1;PMS_P2;Temp;Humidity;BMP_temperature;BMP_pressure;BME280_temperature;BME280_humidity;BME280_pressure;Samples;Min_cycle;Max_cycle;Signal;HPM_P1;HPM_P2
2022/09/26 00:02:14;;;;;;;2.25;1.95;;;;;;;18.31;51.51;92686.28;5068598;28;20410;-90
2022/09/26 00:04:39;;;;;;;2.47;1.95;;;;;;;18.32;51.62;92687.00;5038651;28;20051;-90
2022/09/26 00:07:05;;;;;;;2.38;1.90;;;;;;;18.33;51.53;92689.22;5035050;28;20044;-90
2022/09/26 00:09:30;;;;;;;2.05;1.85;;;;;;;18.31;51.20;92691.75;5050845;28;20503;-90
2022/09/26 00:11:55;;;;;;;2.38;1.88;;;;;;;18.31;51.18;92686.28;5053742;28;20045;-90
2022/09/26 00:14:23;;;;;;;1.75;1.63;;;;;;;18.31;51.31;92680.78;5052994;28;20037;-89
2022/09/26 00:16:48;;;;;;;2.75;2.40;;;;;;;18.31;51.64;92678.06;5058707;28;20047;-90
2022/09/26 00:19:14;;;;;;;2.80;2.17;;;;;;;18.33;51.66;92675.53;5057485;28;20040;-90
2022/09/26 00:21:39;;;;;;;2.95;2.00;;;;;;;18.31;51.40;92669.84;5036639;28;20044;-90
2022/09/26 00:24:05;;;;;;;2.70;2.13;;;;;;;18.33;51.59;92675.53;5035716;28;20045;-89
2022/09/26 00:26:32;;;;;;;2.00;1.80;;;;;;;18.31;51.49;92672.59;5035990;28;20119;-89
2022/09/26 00:28:58;;;;;;;1.77;1.67;;;;;;;18.31;51.49;92661.66;5047915;28;20526;-89
2022/09/26 00:31:26;;;;;;;1.95;1.77;;;;;;;18.32;51.68;92656.91;5052593;28;20068;-89
2022/09/26 00:33:51;;;;;;;2.22;2.03;;;;;;;18.33;51.58;92667.31;5052882;28;20506;-89
2022/09/26 00:36:17;;;;;;;2.28;2.05;;;;;;;18.33;51.45;92670.06;5051176;28;20039;-89
2022/09/26 00:38:42;;;;;;;2.40;1.80;;;;;;;18.31;51.73;92661.66;5030867;28;20053;-90
2022/09/26 00:41:08;;;;;;;2.45;1.90;;;;;;;18.32;51.75;92659.66;5067997;28;20044;-90
2022/09/26 00:43:40;;;;;;;2.22;2.03;;;;;;;18.31;51.69;92658.91;5035609;28;20044;-90
2022/09/26 00:46:30;;;;;;;2.15;1.95;;;;;;;18.30;51.57;92649.22;5068951;28;20041;-90
2022/09/26 00:49:10;;;;;;;2.60;2.17;;;;;;;18.30;51.62;92649.22;5069523;28;20127;-89
2022/09/26 00:51:37;;;;;;;2.72;2.15;;;;;;;18.29;51.58;92655.97;5068591;28;20040;-90
2022/09/26 00:54:02;;;;;;;2.58;1.90;;;;;;;18.29;51.91;92658.69;5077025;28;20448;-90
2022/09/26 00:56:31;;;;;;;2.40;2.00;;;;;;;18.29;51.70;92658.69;5083805;28;20032;-90
2022/09/26 00:59:01;;;;;;;2.38;2.17;;;;;;;18.30;51.58;92665.66;5041770;28;20047;-89
2022/09/26 01:01:26;;;;;;;2.95;2.20;;;;;;;18.29;51.63;92664.16;5035346;28;20115;-90
2022/09/26 01:03:52;;;;;;;2.35;2.08;;;;;;;18.30;51.44;92667.66;5048371;28;20043;-90
2022/09/26 01:06:17;;;;;;;2.60;2.17;;;;;;;18.29;51.58;92655.97;5052178;28;20037;-89
2022/09/26 01:08:51;;;;;;;2.40;2.10;;;;;;;18.28;51.67;92659.22;5081697;28;20130;-90
2022/09/26 01:11:17;;;;;;;2.47;1.95;;;;;;;18.30;51.49;92660.16;5051151;28;20036;-90
2022/09/26 01:13:42;;;;;;;2.20;2.00;;;;;;;18.29;51.63;92655.97;5051989;28;20146;-90
2022/09/26 01:16:09;;;;;;;2.60;2.40;;;;;;;18.31;51.82;92653.44;5051523;28;20036;-90
2022/09/26 01:18:34;;;;;;;2.85;2.40;;;;;;;18.30;51.47;92662.91;5058881;28;20105;-89
2022/09/26 01:21:12;;;;;;;2.25;1.90;;;;;;;18.30;51.59;92648.50;5067375;28;20036;-89
2022/09/26 01:23:53;;;;;;;2.30;2.03;;;;;;;18.30;51.84;92651.22;5052060;28;20040;-89
2022/09/26 01:26:30;;;;;;;2.80;2.38;;;;;;;18.30;51.54;92651.22;5054331;28;20557;-90
2022/09/26 01:29:38;;;;;;;2.42;1.98;;;;;;;18.29;51.65;92652.50;5064231;28;20338;-90
2022/09/26 01:35:21;;;;;;;3.53;2.40;;;;;;;18.31;51.53;92641.75;5060639;28;20083;-89
2022/09/26 01:37:59;;;;;;;2.20;1.90;;;;;;;18.29;51.39;92642.28;5065240;28;20055;-90
2022/09/26 01:40:33;;;;;;;2.25;2.05;;;;;;;18.28;51.51;92635.34;5070957;28;20047;-91
2022/09/26 01:43:12;;;;;;;2.13;1.90;;;;;;;18.29;51.46;92636.81;5053441;28;20048;-89
2022/09/26 01:45:51;;;;;;;2.28;2.08;;;;;;;18.29;51.70;92638.81;5105740;28;20048;-89
2022/09/26 01:48:23;;;;;;;2.78;2.25;;;;;;;18.30;51.79;92634.81;5053900;28;20033;-90
2022/09/26 01:50:52;;;;;;;3.47;2.50;;;;;;;18.28;51.56;92629.13;5055168;28;20064;-90
2022/09/26 01:53:26;;;;;;;2.15;1.90;;;;;;;18.29;51.46;92631.34;5069131;28;20055;-89
2022/09/26 01:56:02;;;;;;;2.40;2.20;;;;;;;18.28;51.49;92623.66;5089988;28;20036;-89
2022/09/26 01:58:31;;;;;;;2.60;2.30;;;;;;;18.34;51.79;92622.28;5068768;28;20040;-89
2022/09/26 02:00:58;;;;;;;2.38;2.08;;;;;;;18.30;51.97;92632.06;5071236;28;20080;-90
2022/09/26 02:03:26;;;;;;;2.47;2.13;;;;;;;18.28;51.58;92623.66;5070720;28;20075;-89
2022/09/26 02:06:01;;;;;;;1.92;1.65;;;;;;;18.28;51.71;92632.59;5039536;28;20060;-90
2022/09/26 02:08:36;;;;;;;2.70;2.40;;;;;;;18.27;51.84;92630.38;5033801;28;20052;-90
2022/09/26 02:11:08;;;;;;;2.70;2.17;;;;;;;18.27;51.69;92628.41;5034864;28;20480;-90
2022/09/26 02:13:41;;;;;;;2.92;2.63;;;;;;;18.27;51.40;92633.88;5067306;28;20043;-90
2022/09/26 02:16:22;;;;;;;2.20;2.00;;;;;;;18.28;51.36;92629.13;5051060;28;20033;-89
2022/09/26 02:18:57;;;;;;;2.17;1.98;;;;;;;18.27;51.83;92622.91;5036151;28;20044;-90
2022/09/26 02:21:22;;;;;;;2.63;2.22;;;;;;;18.27;51.47;92627.66;5069467;28;20106;-89
2022/09/26 02:23:48;;;;;;;2.67;2.38;;;;;;;18.29;51.35;92630.59;5070372;28;20044;-89
2022/09/26 02:26:14;;;;;;;3.35;2.30;;;;;;;18.28;51.59;92626.41;5066822;28;20032;-89
2022/09/26 02:28:39;;;;;;;2.50;2.13;;;;;;;18.28;51.63;92615.44;5034153;28;20426;-90
2022/09/26 02:31:07;;;;;;;2.92;2.50;;;;;;;18.29;51.68;92616.91;5052977;28;20040;-89
2022/09/26 02:33:33;;;;;;;3.03;2.63;;;;;;;18.27;51.63;92622.19;5059311;28;20044;-90
2022/09/26 02:35:58;;;;;;;3.10;2.63;;;;;;;18.28;51.43;92612.72;5071202;28;20395;-90
2022/09/26 02:38:25;;;;;;;2.30;2.00;;;;;;;18.28;51.51;92612.72;5068315;28;20098;-90
2022/09/26 02:41:06;;;;;;;2.08;1.83;;;;;;;18.27;51.53;92605.78;5050320;28;20029;-90
2022/09/26 02:43:41;;;;;;;2.75;2.38;;;;;;;18.27;51.51;92605.78;5085647;28;20043;-89
2022/09/26 02:46:25;;;;;;;2.40;1.95;;;;;;;18.29;51.67;92611.44;5069841;28;20032;-91
2022/09/26 02:49:06;;;;;;;2.60;2.38;;;;;;;18.29;51.77;92603.25;5066521;28;20037;-90
2022/09/26 02:51:53;;;;;;;2.83;2.17;;;;;;;18.28;51.40;92612.72;5045922;28;20037;-89
2022/09/26 02:54:23;;;;;;;2.60;2.10;;;;;;;18.29;51.57;92606.72;5060914;28;20059;-90
2022/09/26 02:57:05;;;;;;;3.22;2.63;;;;;;;18.27;51.46;92606.50;5051391;28;20388;-90
2022/09/26 02:59:34;;;;;;;2.80;2.50;;;;;;;18.27;51.72;92598.28;5065627;28;20041;-90
2022/09/26 03:02:04;;;;;;;2.33;2.00;;;;;;;18.28;51.58;92602.50;5046833;28;20040;-90
2022/09/26 03:05:05;;;;;;;2.67;2.10;;;;;;;18.26;51.46;92598.81;5031269;28;20052;-90
2022/09/26 03:07:37;;;;;;;2.35;2.05;;;;;;;18.26;51.43;92596.09;5048332;28;20079;-90
2022/09/26 03:10:03;;;;;;;2.92;2.05;;;;;;;18.31;51.50;92592.50;5032836;28;20434;-90
2022/09/26 03:12:28;;;;;;;2.50;2.00;;;;;;;18.27;51.43;92590.09;5033089;28;20075;-89
2022/09/26 03:14:54;;;;;;;2.20;1.85;;;;;;;18.26;51.82;92596.81;5065367;28;20040;-90
2022/09/26 03:17:19;;;;;;;2.08;1.88;;;;;;;18.27;51.69;92594.81;5056643;28;20032;-90
2022/09/26 03:19:52;;;;;;;3.78;2.42;;;;;;;18.30;51.56;92593.78;5070133;28;20040;-89
2022/09/26 03:22:17;;;;;;;2.38;2.17;;;;;;;18.27;51.71;92590.09;5069501;28;20411;-90
2022/09/26 03:24:43;;;;;;;3.45;2.38;;;;;;;18.28;51.77;92582.63;5069619;28;20047;-90
2022/09/26 03:27:11;;;;;;;3.20;2.30;;;;;;;18.27;51.62;92583.88;5068961;28;20036;-90
2022/09/26 03:29:37;;;;;;;2.47;2.28;;;;;;;18.26;51.64;92583.16;5053119;28;20051;-90
2022/09/26 03:32:04;;;;;;;3.08;1.90;;;;;;;18.27;51.52;92586.63;5069868;28;20040;-90
2022/09/26 03:34:29;;;;;;;3.15;2.20;;;;;;;18.26;51.75;92576.94;5054070;28;20054;-89
2022/09/26 03:36:54;;;;;;;2.35;2.15;;;;;;;18.29;51.65;92576.63;5049520;28;20036;-90
2022/09/26 03:39:20;;;;;;;3.15;2.45;;;;;;;18.26;51.70;92582.41;5049118;28;20123;-89
2022/09/26 03:41:45;;;;;;;2.30;1.75;;;;;;;18.26;51.61;92576.94;5049227;28;20036;-89
2022/09/26 03:44:12;;;;;;;2.55;2.10;;;;;;;18.29;51.41;92576.63;5048319;28;20353;-90
2022/09/26 03:46:37;;;;;;;4.10;2.38;;;;;;;18.31;51.97;92581.56;5033481;28;20042;-89
2022/09/26 03:49:03;;;;;;;3.95;2.30;;;;;;;18.30;51.75;92571.88;5048490;28;20033;-88
2022/09/26 03:51:28;;;;;;;2.70;2.40;;;;;;;18.30;51.84;92571.88;5082143;28;20036;-87
2022/09/26 03:53:54;;;;;;;2.90;2.20;;;;;;;18.32;51.86;92575.56;5065325;28;20324;-88
2022/09/26 03:56:20;;;;;;;2.42;1.90;;;;;;;18.30;51.37;92577.34;5087500;28;20032;-89
2022/09/26 03:58:46;;;;;;;3.17;2.22;;;;;;;18.31;51.93;92579.56;5088906;28;20494;-89
2022/09/26 04:01:13;;;;;;;2.47;1.98;;;;;;;18.30;51.44;92580.09;5048256;28;20033;-89
2022/09/26 04:03:39;;;;;;;2.60;2.13;;;;;;;18.32;51.99;92583.03;5031959;28;20048;-90
2022/09/26 04:06:08;;;;;;;2.35;2.00;;;;;;;18.29;51.83;92571.16;5080262;28;20049;-90
2022/09/26 04:08:38;;;;;;;2.90;2.20;;;;;;;18.28;51.58;92561.47;5041858;28;20044;-90
2022/09/26 04:11:06;;;;;;;2.40;1.92;;;;;;;18.29;51.69;92571.16;5054198;28;20064;-90
2022/09/26 04:13:32;;;;;;;5.05;2.78;;;;;;;18.28;52.09;92574.41;5057229;28;20576;-90
2022/09/26 04:15:57;;;;;;;8.05;5.15;;;;;;;18.26;52.35;92574.94;5049256;28;20048;-89
2022/09/26 04:18:23;;;;;;;7.30;4.72;;;;;;;18.25;52.07;92570.72;5058930;28;20138;-88
2022/09/26 04:20:48;;;;;;;14.10;5.20;;;;;;;18.27;52.10;92573.69;5064516;28;20045;-87
2022/09/26 04:23:14;;;;;;;5.88;3.50;;;;;;;18.30;51.71;92569.16;5048488;28;20044;-88
2022/09/26 04:25:39;;;;;;;6.05;3.83;;;;;;;18.30;51.88;92575.34;5066232;28;20040;-88
2022/09/26 04:28:05;;;;;;;8.73;3.78;;;;;;;18.33;51.93;92579.78;5047898;28;20040;-87
2022/09/26 04:30:30;;;;;;;12.77;3.83;;;;;;;18.33;51.80;92582.50;5045996;28;20487;-87
2022/09/26 04:32:56;;;;;;;6.38;4.45;;;;;;;18.30;52.11;92585.56;5063487;28;20037;-90
2022/09/26 04:35:23;;;;;;;16.92;6.13;;;;;;;18.36;51.84;92575.97;5063753;28;20044;-86
2022/09/26 04:37:49;;;;;;;10.75;4.95;;;;;;;18.36;52.05;92578.72;5042238;28;20044;-88
2022/09/26 04:40:14;;;;;;;17.33;11.73;;;;;;;18.37;51.86;92579.44;5058205;28;20037;-86
2022/09/26 04:42:41;;;;;;;23.30;14.70;;;;;;;18.39;52.01;92579.66;5037274;28;21461;-88
2022/09/26 04:45:07;;;;;;;23.55;15.07;;;;;;;18.42;51.99;92582.03;5033688;28;20496;-90
2022/09/26 04:47:32;;;;;;;45.90;30.92;;;;;;;18.43;52.01;92571.84;5040334;28;20047;-93
2022/09/26 04:49:58;;;;;;;16.40;8.32;;;;;;;18.44;51.81;92576.78;5048578;28;20132;-88
2022/09/26 04:52:23;;;;;;;11.57;8.55;;;;;;;18.43;51.23;92572.56;5057307;28;20067;-90
2022/09/26 04:54:49;;;;;;;16.98;9.18;;;;;;;18.43;51.65;92577.31;5065599;28;20047;-92
2022/09/26 04:57:15;;;;;;;13.50;9.30;;;;;;;18.43;51.61;92583.53;5054892;28;20032;-93
2022/09/26 04:59:40;;;;;;;12.45;8.68;;;;;;;18.42;51.92;92575.84;5059451;28;20089;-93
2022/09/26 05:02:07;;;;;;;33.03;12.10;;;;;;;18.42;51.40;92579.31;5073975;28;20040;-91
2022/09/26 05:04:33;;;;;;;84.50;20.25;;;;;;;18.41;51.76;92574.38;5047513;28;20139;-90
2022/09/26 05:06:58;;;;;;;29.48;10.43;;;;;;;18.38;51.78;92578.94;5061635;28;20029;-92
2022/09/26 05:09:24;;;;;;;48.33;15.30;;;;;;;18.44;51.32;92582.25;5060081;28;20055;-91
2022/09/26 05:11:50;;;;;;;46.22;13.43;;;;;;;18.42;51.97;92581.31;5067659;28;20040;-91
2022/09/26 05:14:15;;;;;;;30.00;11.25;;;;;;;18.44;51.80;92582.25;5055533;28;20028;-94
2022/09/26 05:16:40;;;;;;;40.80;12.30;;;;;;;18.42;51.92;92576.56;5055153;28;20045;-88
2022/09/26 05:19:07;;;;;;;24.40;10.80;;;;;;;18.44;51.96;92578.78;5040634;28;20037;-93
2022/09/26 05:21:33;;;;;;;24.38;10.55;;;;;;;18.42;51.84;92578.56;5041815;28;20037;-92
2022/09/26 05:26:45;;;;;;;43.60;13.82;;;;;;;18.45;51.78;92577.50;5073720;28;20552;-90
2022/09/26 05:29:10;;;;;;;31.10;13.55;;;;;;;18.44;52.32;92573.31;5060169;28;20130;-91
2022/09/26 05:31:36;;;;;;;27.30;13.80;;;;;;;18.42;51.48;92571.09;5055182;28;20438;-90
2022/09/26 05:34:06;;;;;;;37.58;15.77;;;;;;;18.39;51.90;92569.44;5055250;28;20578;-92
2022/09/26 05:36:31;;;;;;;38.80;13.30;;;;;;;18.41;52.09;92575.09;5081406;28;20301;-87
2022/09/26 05:38:57;;;;;;;26.52;12.00;;;;;;;18.43;52.11;92575.31;5075043;28;20759;-89
2022/09/26 05:41:22;;;;;;;30.95;13.60;;;;;;;18.42;52.02;92578.56;5071014;28;20064;-88
2022/09/26 05:43:48;;;;;;;37.05;14.90;;;;;;;18.44;52.11;92576.03;5088894;28;20043;-92
2022/09/26 05:46:13;;;;;;;36.47;16.02;;;;;;;18.43;51.48;92571.84;5069437;28;20185;-90
2022/09/26 05:48:39;;;;;;;36.08;15.38;;;;;;;18.44;52.05;92567.84;5068637;28;20032;-91
2022/09/26 05:51:10;;;;;;;28.85;14.82;;;;;;;18.44;52.51;92565.84;5062982;28;20567;-90
2022/09/26 05:53:36;;;;;;;50.35;16.17;;;;;;;18.47;52.03;92566.78;5063212;28;20668;-92
2022/09/26 05:56:01;;;;;;;44.60;18.35;;;;;;;18.45;51.84;92577.50;5096164;28;20131;-90
2022/09/26 05:58:30;;;;;;;55.85;22.33;;;;;;;18.45;52.21;92570.03;5051192;28;20029;-90
2022/09/26 06:01:01;;;;;;;58.35;23.08;;;;;;;18.47;52.16;92575.72;5073037;28;20037;-91
2022/09/26 06:03:33;;;;;;;53.85;22.38;;;;;;;18.46;52.71;92577.00;5042472;28;20847;-89
2022/09/26 06:06:04;;;;;;;70.15;28.48;;;;;;;18.50;52.56;92568.47;5057311;28;20048;-89
2022/09/26 06:08:31;;;;;;;62.80;28.50;;;;;;;18.53;52.20;92570.13;5047975;28;20555;-89
2022/09/26 06:11:01;;;;;;;74.78;34.95;;;;;;;18.57;52.32;92567.06;5072895;28;20067;-89
2022/09/26 06:13:27;;;;;;;60.72;31.08;;;;;;;18.57;51.98;92570.53;5076457;28;20819;-89
2022/09/26 06:15:53;;;;;;;55.65;30.63;;;;;;;18.55;51.93;92569.59;5074885;28;20036;-89
2022/09/26 06:18:18;;;;;;;51.53;27.58;;;;;;;18.60;51.90;92574.25;5069313;28;20032;-90
2022/09/26 06:20:45;;;;;;;61.50;31.85;;;;;;;18.60;51.92;92577.72;5052936;28;20041;-89
2022/09/26 06:23:10;;;;;;;67.97;34.50;;;;;;;18.66;51.86;92572.09;5047499;28;20067;-87
2022/09/26 06:25:35;;;;;;;65.53;32.97;;;;;;;18.61;51.48;92559.31;5027845;28;20040;-88
2022/09/26 06:28:01;;;;;;;67.30;36.13;;;;;;;18.59;51.48;92573.50;5074116;28;20043;-89
2022/09/26 06:30:26;;;;;;;64.82;33.33;;;;;;;18.59;51.74;92579.00;5056532;28;20036;-87
2022/09/26 06:32:52;;;;;;;81.50;34.80;;;;;;;18.57;51.54;92576.03;5085309;28;20040;-87
2022/09/26 06:35:20;;;;;;;56.53;29.30;;;;;;;18.57;51.91;92580.75;5040949;28;20044;-88
2022/09/26 06:37:45;;;;;;;68.63;31.90;;;;;;;18.56;51.58;92576.53;5054985;28;20036;-85
2022/09/26 06:40:11;;;;;;;53.72;29.58;;;;;;;18.55;51.68;92580.56;5054903;28;20037;-89
2022/09/26 06:42:37;;;;;;;53.22;30.30;;;;;;;18.55;52.14;92581.28;5059253;28;20044;-92
2022/09/26 06:45:06;;;;;;;57.17;31.40;;;;;;;18.54;51.80;92576.34;5047555;28;21878;-88
2022/09/26 06:47:32;;;;;;;68.32;33.45;;;;;;;18.56;52.49;92582.75;5080112;28;20502;-89
2022/09/26 06:49:58;;;;;;;140.82;42.25;;;;;;;18.56;51.81;92580.03;5079304;28;20051;-88
2022/09/26 06:52:24;;;;;;;92.78;32.97;;;;;;;18.56;51.99;92573.81;5080887;28;20043;-87
2022/09/26 06:54:49;;;;;;;78.70;34.47;;;;;;;18.56;52.12;92582.03;5051605;28;20024;-89
2022/09/26 06:57:15;;;;;;;68.78;33.10;;;;;;;18.52;52.17;92582.34;5059833;28;20044;-88
2022/09/26 06:59:40;;;;;;;64.30;30.33;;;;;;;18.54;52.11;92584.56;5051442;28;20047;-88
2022/09/26 07:02:07;;;;;;;75.97;31.73;;;;;;;18.54;51.72;92576.34;5034445;28;20466;-87
2022/09/26 07:04:41;;;;;;;66.88;29.00;;;;;;;18.50;51.64;92580.13;5072061;28;20147;-88
2022/09/26 07:07:06;;;;;;;99.80;32.72;;;;;;;18.53;51.95;92575.59;5060103;28;20037;-89
2022/09/26 07:09:32;;;;;;;74.20;27.10;;;;;;;18.54;52.28;92588.03;5069512;28;20047;-85
2022/09/26 07:11:58;;;;;;;62.67;28.65;;;;;;;18.55;51.86;92586.75;5054246;28;20056;-87
2022/09/26 07:14:23;;;;;;;66.43;31.00;;;;;;;18.52;51.93;92587.09;5055739;28;20035;-87
2022/09/26 07:16:50;;;;;;;68.68;29.25;;;;;;;18.53;51.80;92580.34;5066563;28;20040;-87
2022/09/26 07:19:17;;;;;;;66.60;29.17;;;;;;;18.52;52.26;92584.34;5048690;28;20149;-87
2022/09/26 07:21:43;;;;;;;60.25;27.40;;;;;;;18.50;52.11;92585.59;5052947;28;20063;-87
2022/09/26 07:24:12;;;;;;;82.43;34.97;;;;;;;18.55;51.97;92584.03;5049526;28;20052;-87
2022/09/26 07:26:38;;;;;;;65.22;29.85;;;;;;;18.52;51.82;92579.59;5042375;28;20044;-89
2022/09/26 07:29:04;;;;;;;73.07;34.65;;;;;;;18.55;52.21;92591.50;5045159;28;20040;-88
2022/09/26 07:31:29;;;;;;;59.30;30.42;;;;;;;18.50;52.17;92588.34;5044646;28;20051;-87
2022/09/26 07:33:55;;;;;;;60.63;33.08;;;;;;;18.52;52.12;92589.81;5066399;28;20032;-87
2022/09/26 07:36:21;;;;;;;60.85;31.15;;;;;;;18.53;51.89;92592.03;5062138;28;20047;-86
2022/09/26 07:38:47;;;;;;;80.78;33.00;;;;;;;18.55;51.95;92594.22;5059791;28;20048;-88
2022/09/26 07:41:12;;;;;;;78.60;32.72;;;;;;;18.54;51.69;92603.72;5087103;28;20043;-87
2022/09/26 07:43:38;;;;;;;63.40;28.10;;;;;;;18.55;52.87;92608.66;5051412;28;20056;-87
2022/09/26 07:51:32;;;;;;;74.47;34.13;;;;;;;18.53;51.87;92602.97;5069669;28;20225;-86
2022/09/26 07:53:57;;;;;;;81.90;35.70;;;;;;;18.56;51.89;92604.66;5063279;28;20135;-86
2022/09/26 07:56:23;;;;;;;80.22;32.78;;;;;;;18.54;52.25;92600.97;5042239;28;20121;-86
2022/09/26 07:58:49;;;;;;;76.28;34.67;;;;;;;18.54;51.89;92606.44;5037558;28;20136;-87
2022/09/26 08:01:15;;;;;;;85.72;36.20;;;;;;;18.56;52.11;92599.19;5084406;28;20039;-87
2022/09/26 08:03:41;;;;;;;90.68;35.25;;;;;;;18.56;52.09;92610.13;5048937;28;20033;-87
2022/09/26 08:06:07;;;;;;;76.93;36.10;;;;;;;18.57;52.12;92602.66;5036492;28;20059;-88
2022/09/26 08:08:32;;;;;;;85.28;37.30;;;;;;;18.58;52.10;92596.66;5070490;28;20496;-87
2022/09/26 08:10:58;;;;;;;88.72;39.50;;;;;;;18.55;52.20;92605.91;5061581;28;20037;-87
2022/09/26 08:13:24;;;;;;;95.53;38.63;;;;;;;18.53;52.25;92608.44;5049340;28;20048;-87
2022/09/26 08:15:50;;;;;;;92.22;38.60;;;;;;;18.55;51.96;92613.41;5044164;28;20032;-87
2022/09/26 08:18:16;;;;;;;76.65;35.65;;;;;;;18.54;52.27;92607.19;5051718;28;20037;-90
2022/09/26 08:20:46;;;;;;;83.25;35.83;;;;;;;18.54;52.45;92611.91;5054459;28;20047;-88
2022/09/26 08:23:15;;;;;;;73.00;30.45;;;;;;;18.50;52.05;92607.50;5052611;28;20037;-86
2022/09/26 08:25:40;;;;;;;61.40;27.30;;;;;;;18.50;52.05;92609.50;5048427;28;20174;-85
2022/09/26 08:28:06;;;;;;;76.53;24.88;;;;;;;18.48;51.79;92601.09;5066052;28;20037;-86
2022/09/26 08:30:32;;;;;;;49.78;23.70;;;;;;;18.45;51.85;92607.63;5049790;28;20040;-87
2022/09/26 08:33:00;;;;;;;63.08;20.42;;;;;;;18.45;51.75;92610.34;5071574;28;20076;-89
2022/09/26 08:35:27;;;;;;;60.17;21.25;;;;;;;18.42;51.75;92598.47;5035867;28;20058;-86
2022/09/26 08:37:52;;;;;;;50.13;20.00;;;;;;;18.43;51.63;92594.47;5069861;28;20040;-88
2022/09/26 08:40:19;;;;;;;37.33;18.05;;;;;;;18.39;52.16;92602.28;5076941;28;20040;-88
2022/09/26 08:42:56;;;;;;;26.63;14.05;;;;;;;18.43;51.91;92602.66;5064309;28;20036;-87
2022/09/26 08:48:20;;;;;;;19.65;10.20;;;;;;;18.40;51.96;92603.72;5069012;28;20074;-88
2022/09/26 08:50:50;;;;;;;24.10;10.57;;;;;;;18.40;51.81;92601.00;5091325;28;20142;-88
2022/09/26 08:53:19;;;;;;;24.02;11.32;;;;;;;18.36;52.04;92595.13;5067728;28;20048;-87
2022/09/26 08:55:46;;;;;;;20.17;11.20;;;;;;;18.39;51.67;92598.81;5081456;28;20040;-87
2022/09/26 08:58:20;;;;;;;183.82;37.53;;;;;;;18.41;51.63;92582.56;5095460;28;20491;-88
2022/09/26 09:00:47;;;;;;;26.67;12.52;;;;;;;18.38;51.70;92594.59;5054912;28;20055;-90
2022/09/26 09:03:28;;;;;;;33.60;15.75;;;;;;;18.39;51.95;92593.34;5059526;28;20108;-86
2022/09/26 09:06:06;;;;;;;48.78;21.15;;;;;;;18.43;51.68;92582.78;5086454;28;20035;-85
2022/09/26 09:08:35;;;;;;;47.60;23.85;;;;;;;18.45;52.03;92580.25;5047872;28;20454;-86
2022/09/26 09:11:35;;;;;;;30.70;17.02;;;;;;;18.44;52.00;92570.56;5059859;28;20032;-87
2022/09/26 09:14:08;;;;;;;41.70;21.40;;;;;;;18.48;52.11;92571.72;5067229;28;20040;-87
2022/09/26 09:16:52;;;;;;;40.88;24.67;;;;;;;18.48;52.12;92573.72;5079800;28;20033;-89
2022/09/26 09:19:23;;;;;;;49.90;26.13;;;;;;;18.49;51.83;92575.19;5130129;27;20510;-88
2022/09/26 09:21:48;;;;;;;67.25;30.85;;;;;;;18.50;51.89;92571.94;5076520;28;20130;-86
2022/09/26 09:24:41;;;;;;;81.97;36.42;;;;;;;18.52;52.08;92570.66;5077152;28;20135;-86
2022/09/26 09:27:20;;;;;;;70.47;34.63;;;;;;;18.52;51.83;92574.13;5089490;28;20121;-88
2022/09/26 09:29:58;;;;;;;86.97;38.85;;;;;;;18.54;51.87;92576.34;5092497;28;20535;-87
2022/09/26 09:32:27;;;;;;;87.93;39.88;;;;;;;18.57;52.13;92569.81;5088573;28;20032;-88
2022/09/26 09:34:53;;;;;;;69.18;39.35;;;;;;;18.57;52.06;92578.03;5088328;28;20123;-86
2022/09/26 09:37:21;;;;;;;79.65;36.90;;;;;;;18.56;52.26;92562.88;5045031;28;20056;-85
2022/09/26 09:39:47;;;;;;;74.88;40.50;;;;;;;18.58;52.11;92563.81;5062569;28;20036;-86
2022/09/26 09:42:35;;;;;;;92.18;40.35;;;;;;;18.57;51.97;92553.38;5061948;28;20032;-87
2022/09/26 09:45:04;;;;;;;84.53;41.70;;;;;;;18.61;51.79;92556.56;5039637;28;20032;-88
2022/09/26 09:47:29;;;;;;;84.95;41.80;;;;;;;18.61;51.93;92557.28;5074895;28;20067;-86
2022/09/26 09:49:56;;;;;;;93.85;40.72;;;;;;;18.61;52.04;92551.81;5042513;28;20037;-86
2022/09/26 09:52:48;;;;;;;61.00;31.40;;;;;;;18.60;52.64;92555.81;5051509;28;20049;-87
2022/09/26 09:55:14;;;;;;;64.10;34.83;;;;;;;18.62;52.26;92558.75;5049120;28;20033;-85
2022/09/26 09:57:43;;;;;;;70.13;36.33;;;;;;;18.64;51.89;92550.00;5066977;28;20555;-87
2022/09/26 10:00:14;;;;;;;71.13;34.78;;;;;;;18.63;51.80;92552.00;5065498;28;20037;-86
2022/09/26 10:02:42;;;;;;;;;;;;;;;18.63;52.12;92554.00;5068453;28;20118;-86
2022/09/26 10:05:27;;;;;;;75.18;37.60;;;;;;;18.62;51.86;92556.00;5074470;28;19931;-87
2022/09/26 10:07:56;;;;;;;58.95;29.38;;;;;;;18.60;51.81;92557.81;5083128;28;20039;-86
2022/09/26 10:10:27;;;;;;;50.20;24.10;;;;;;;18.59;51.65;92559.06;5065494;28;20055;-87
2022/09/26 10:12:53;;;;;;;40.70;21.85;;;;;;;18.53;51.80;92555.72;5089322;27;20071;-86
2022/09/26 10:15:23;;;;;;;36.25;16.88;;;;;;;18.53;51.75;92561.91;5049676;28;20483;-85
2022/09/26 10:18:05;;;;;;;38.55;19.60;;;;;;;18.50;51.90;92555.50;5045380;28;20087;-87
2022/09/26 10:20:36;;;;;;;31.75;18.05;;;;;;;18.49;51.91;92548.56;5042253;28;20034;-87
2022/09/26 10:23:15;;;;;;;34.63;19.60;;;;;;;18.46;51.93;92546.88;5051611;28;20045;-87
2022/09/26 10:25:43;;;;;;;34.95;21.10;;;;;;;18.47;51.63;92544.88;5060460;28;20116;-86
2022/09/26 10:28:10;;;;;;;27.80;19.50;;;;;;;18.45;51.48;92547.41;5052013;28;20123;-88
2022/09/26 10:30:46;;;;;;;21.50;14.52;;;;;;;18.44;51.42;92549.41;5073157;28;20028;-88
2022/09/26 10:33:33;;;;;;;25.08;14.50;;;;;;;18.44;51.26;92545.94;5065271;28;20504;-87
2022/09/26 10:36:19;;;;;;;19.23;11.90;;;;;;;18.41;51.58;92550.47;5055046;28;20040;-86
2022/09/26 10:40:43;;;;;;;16.80;11.07;;;;;;;18.39;50.96;92547.56;5071930;28;20122;-87
2022/09/26 10:41:39;;;;;;;18.00;10.40;;;;;;;18.37;50.79;92544.63;5072922;28;20033;-87
2022/09/26 10:44:06;;;;;;;15.68;9.18;;;;;;;18.36;50.74;92545.16;5064123;28;20120;-87
2022/09/26 10:46:32;;;;;;;16.08;9.95;;;;;;;18.40;50.26;92545.56;5091095;28;20105;-87
2022/09/26 10:49:00;;;;;;;11.85;9.35;;;;;;;18.34;50.87;92542.19;5049567;28;20044;-86
2022/09/26 10:51:34;;;;;;;12.32;9.35;;;;;;;18.36;50.71;92540.41;5040970;28;20117;-88
2022/09/26 10:54:10;;;;;;;27.50;16.83;;;;;;;18.33;50.33;92535.25;5029517;28;20037;-86
2022/09/26 10:56:38;;;;;;;53.75;14.90;;;;;;;18.30;50.71;92536.31;5058820;28;20415;-87
2022/09/26 10:59:07;;;;;;;55.03;17.65;;;;;;;18.34;50.95;92545.69;5046581;28;20404;-88
2022/09/26 11:01:34;;;;;;;54.70;19.45;;;;;;;18.34;50.85;92539.47;5054636;28;20044;-89
2022/09/26 11:05:55;;;;;;;44.75;13.77;;;;;;;18.32;51.14;92536.53;5069631;28;20048;-88
2022/09/26 11:07:04;;;;;;;39.80;14.00;;;;;;;18.34;51.27;92534.72;5064730;28;20036;-87
2022/09/26 11:09:30;;;;;;;21.83;9.73;;;;;;;18.36;51.90;92532.19;5082069;28;20491;-87
2022/09/26 11:11:55;;;;;;;22.65;9.40;;;;;;;18.36;51.37;92531.47;5067553;28;20116;-88
2022/09/26 11:14:27;;;;;;;23.23;9.27;;;;;;;18.38;51.82;92526.94;5069241;28;20059;-87
2022/09/26 11:16:54;;;;;;;29.23;10.32;;;;;;;18.43;51.54;92519.84;5077579;28;20037;-87
2022/09/26 11:19:47;;;;;;;26.55;10.43;;;;;;;18.44;51.23;92524.06;5038336;28;20504;-89
2022/09/26 11:22:20;;;;;;;39.42;15.93;;;;;;;18.45;51.59;92512.56;5079496;28;20048;-88
2022/09/26 11:24:49;;;;;;;47.70;19.08;;;;;;;18.47;51.37;92521.00;5060002;28;20033;-89
2022/09/26 11:27:30;;;;;;;72.32;25.90;;;;;;;18.47;51.30;92512.78;5087313;28;20036;-89
2022/09/26 11:30:01;;;;;;;43.33;23.27;;;;;;;18.52;51.34;92510.44;5080104;28;20039;-88
2022/09/26 11:32:29;;;;;;;;;;;;;;;18.52;51.67;92518.66;5069598;28;20040;-88
2022/09/26 11:35:01;;;;;;;91.88;38.08;;;;;;;18.53;51.63;92520.88;5078045;28;19924;-89
2022/09/26 11:37:34;;;;;;;136.40;53.10;;;;;;;18.53;51.59;92509.19;5062833;28;20581;-91
2022/09/26 11:40:11;;;;;;;209.70;76.20;;;;;;;18.52;51.61;92526.88;5074541;28;20543;-87
2022/09/26 11:43:07;;;;;;;163.63;65.30;;;;;;;18.53;51.54;92517.41;5070948;28;20133;-88
2022/09/26 11:46:13;;;;;;;176.30;69.32;;;;;;;18.54;51.68;92525.06;5067295;28;20041;-88
2022/09/26 11:49:16;;;;;;;207.57;80.40;;;;;;;18.55;51.18;92510.13;5061086;28;20052;-87
2022/09/26 11:51:54;;;;;;;172.18;69.38;;;;;;;18.58;51.36;92506.31;5058836;28;20601;-88